LSMM

Details ICAO LSMM
Name Meiringen
Region Switzerland
Timezone Europe/Zurich (UTC+1.0)
Plans Departing 10
Arriving 8
Stats Elevation 1,879 ft / 573 m (AMSL)
Location 46.742327° 8.108747°
Runways 1
Magnetic Variation 2.234° E
Sunrise 2017-12-14 07:06:14 UTC / 2017-12-14 08:06:14 Local
Sunset 2017-12-14 15:41:03 UTC / 2017-12-14 16:41:03 Local
Advertisement - Login to hide

Runways

ID Width Length Bearing (true) Bearing (mag) Surface Threshold Offset Overrun Length
10 131 ft / 40 m 6,884 ft / 2,098 m 96.60° 94.37° Concrete 150 ft / 46 m 623 ft / 190 m
28 131 ft / 40 m 6,884 ft / 2,098 m 276.62° 274.39° Concrete 150 ft / 46 m 623 ft / 190 m

Map

Weather


0- 5 10 15 20 25 30 35+ Temperature / ° C

Clouds and Precipitation
Forecast for 2017-12-14 06:00 UTC. Updated 2 hours ago

Ground ~20,000 ft ~40,000 ft Winds

METAR

LSMM 140350Z AUTO VRB02KT 9999NDV -SHRA FEW071 OVC081 01/M00 Q1003 RMK

TAF

Not found

Frequencies

Tower 130.15 MHz TWR
Warning: Do not use this data for real-world aviation or navigation. No guarantee of current accuracy is given.